sensor_id;sensor_type;location;lat;lon;timestamp;P1;durP1;ratioP1;P2;durP2;ratioP2
18653;SDS011;9456;47.824;16.228;2024-03-02T00:00:16;32.07;;;25.90;;
18653;SDS011;9456;47.824;16.228;2024-03-02T00:02:45;31.20;;;25.23;;
18653;SDS011;9456;47.824;16.228;2024-03-02T00:05:13;31.97;;;26.03;;
18653;SDS011;9456;47.824;16.228;2024-03-02T00:07:41;29.63;;;24.30;;
18653;SDS011;9456;47.824;16.228;2024-03-02T00:10:10;30.03;;;25.47;;
18653;SDS011;9456;47.824;16.228;2024-03-02T00:12:45;29.57;;;25.43;;
18653;SDS011;9456;47.824;16.228;2024-03-02T00:15:19;31.10;;;25.53;;
18653;SDS011;9456;47.824;16.228;2024-03-02T00:17:52;30.00;;;26.30;;
18653;SDS011;9456;47.824;16.228;2024-03-02T00:20:13;28.80;;;25.07;;
18653;SDS011;9456;47.824;16.228;2024-03-02T00:22:41;29.03;;;23.93;;
18653;SDS011;9456;47.824;16.228;2024-03-02T00:25:09;33.33;;;26.70;;
18653;SDS011;9456;47.824;16.228;2024-03-02T00:27:37;40.47;;;32.30;;
18653;SDS011;9456;47.824;16.228;2024-03-02T00:30:06;41.33;;;33.60;;
18653;SDS011;9456;47.824;16.228;2024-03-02T00:32:34;44.80;;;34.93;;
18653;SDS011;9456;47.824;16.228;2024-03-02T00:35:03;46.43;;;35.90;;
18653;SDS011;9456;47.824;16.228;2024-03-02T00:37:31;42.27;;;33.03;;
18653;SDS011;9456;47.824;16.228;2024-03-02T00:39:59;38.70;;;30.57;;
18653;SDS011;9456;47.824;16.228;2024-03-02T00:42:27;44.87;;;33.70;;
18653;SDS011;9456;47.824;16.228;2024-03-02T00:44:55;43.90;;;33.47;;
18653;SDS011;9456;47.824;16.228;2024-03-02T00:49:59;41.87;;;31.77;;
18653;SDS011;9456;47.824;16.228;2024-03-02T00:52:27;45.57;;;33.43;;
18653;SDS011;9456;47.824;16.228;2024-03-02T00:54:57;46.10;;;33.23;;
18653;SDS011;9456;47.824;16.228;2024-03-02T00:57:25;44.50;;;33.17;;
18653;SDS011;9456;47.824;16.228;2024-03-02T00:59:53;40.07;;;31.20;;
18653;SDS011;9456;47.824;16.228;2024-03-02T01:02:21;33.13;;;27.47;;
18653;SDS011;9456;47.824;16.228;2024-03-02T01:04:49;28.73;;;25.73;;
18653;SDS011;9456;47.824;16.228;2024-03-02T01:07:17;25.73;;;23.17;;
18653;SDS011;9456;47.824;16.228;2024-03-02T01:09:45;23.37;;;20.97;;
18653;SDS011;9456;47.824;16.228;2024-03-02T01:12:13;23.60;;;21.20;;
18653;SDS011;9456;47.824;16.228;2024-03-02T01:14:41;23.40;;;21.00;;
18653;SDS011;9456;47.824;16.228;2024-03-02T01:17:10;25.53;;;22.87;;
18653;SDS011;9456;47.824;16.228;2024-03-02T01:19:38;27.40;;;24.50;;
18653;SDS011;9456;47.824;16.228;2024-03-02T01:22:06;30.70;;;24.60;;
18653;SDS011;9456;47.824;16.228;2024-03-02T01:24:34;28.57;;;24.07;;
18653;SDS011;9456;47.824;16.228;2024-03-02T01:27:02;29.10;;;23.80;;
18653;SDS011;9456;47.824;16.228;2024-03-02T01:29:30;29.43;;;24.03;;
18653;SDS011;9456;47.824;16.228;2024-03-02T01:31:58;28.40;;;24.40;;
18653;SDS011;9456;47.824;16.228;2024-03-02T01:34:26;30.00;;;24.10;;
18653;SDS011;9456;47.824;16.228;2024-03-02T01:36:54;28.53;;;23.73;;
18653;SDS011;9456;47.824;16.228;2024-03-02T01:39:22;26.73;;;21.80;;
18653;SDS011;9456;47.824;16.228;2024-03-02T01:41:50;25.90;;;23.20;;
18653;SDS011;9456;47.824;16.228;2024-03-02T01:44:18;26.83;;;22.60;;
18653;SDS011;9456;47.824;16.228;2024-03-02T01:46:46;26.80;;;23.50;;
18653;SDS011;9456;47.824;16.228;2024-03-02T01:49:14;25.63;;;22.93;;
18653;SDS011;9456;47.824;16.228;2024-03-02T01:51:42;25.23;;;21.80;;
18653;SDS011;9456;47.824;16.228;2024-03-02T01:54:10;28.67;;;22.27;;
18653;SDS011;9456;47.824;16.228;2024-03-02T01:56:38;25.37;;;22.23;;
18653;SDS011;9456;47.824;16.228;2024-03-02T01:59:06;25.53;;;22.77;;
18653;SDS011;9456;47.824;16.228;2024-03-02T02:01:34;26.83;;;22.97;;
18653;SDS011;9456;47.824;16.228;2024-03-02T02:04:02;27.90;;;23.60;;
18653;SDS011;9456;47.824;16.228;2024-03-02T02:06:30;26.70;;;22.57;;
18653;SDS011;9456;47.824;16.228;2024-03-02T02:08:58;27.03;;;23.20;;
18653;SDS011;9456;47.824;16.228;2024-03-02T02:11:35;27.10;;;22.27;;
18653;SDS011;9456;47.824;16.228;2024-03-02T02:14:07;26.23;;;23.03;;
18653;SDS011;9456;47.824;16.228;2024-03-02T02:16:35;27.60;;;22.80;;
18653;SDS011;9456;47.824;16.228;2024-03-02T02:19:03;29.80;;;23.63;;
18653;SDS011;9456;47.824;16.228;2024-03-02T02:21:31;28.63;;;23.47;;
18653;SDS011;9456;47.824;16.228;2024-03-02T02:23:59;31.63;;;24.23;;
18653;SDS011;9456;47.824;16.228;2024-03-02T02:26:27;29.93;;;25.00;;
18653;SDS011;9456;47.824;16.228;2024-03-02T02:28:55;29.30;;;24.77;;
18653;SDS011;9456;47.824;16.228;2024-03-02T02:31:23;32.07;;;24.83;;
18653;SDS011;9456;47.824;16.228;2024-03-02T02:34:00;33.63;;;25.50;;
18653;SDS011;9456;47.824;16.228;2024-03-02T02:36:28;32.17;;;25.67;;
18653;SDS011;9456;47.824;16.228;2024-03-02T02:38:56;35.67;;;26.27;;
18653;SDS011;9456;47.824;16.228;2024-03-02T02:41:24;30.80;;;24.43;;
18653;SDS011;9456;47.824;16.228;2024-03-02T02:43:52;35.33;;;26.70;;
18653;SDS011;9456;47.824;16.228;2024-03-02T02:46:20;35.40;;;25.80;;
18653;SDS011;9456;47.824;16.228;2024-03-02T02:48:48;34.40;;;26.90;;
18653;SDS011;9456;47.824;16.228;2024-03-02T02:51:17;33.27;;;24.90;;
18653;SDS011;9456;47.824;16.228;2024-03-02T02:53:45;35.60;;;26.07;;
18653;SDS011;9456;47.824;16.228;2024-03-02T02:56:13;33.10;;;25.30;;
18653;SDS011;9456;47.824;16.228;2024-03-02T02:58:41;34.37;;;26.43;;
18653;SDS011;9456;47.824;16.228;2024-03-02T03:01:09;32.10;;;24.13;;
18653;SDS011;9456;47.824;16.228;2024-03-02T03:03:37;32.23;;;23.67;;
18653;SDS011;9456;47.824;16.228;2024-03-02T03:06:05;32.40;;;24.67;;
18653;SDS011;9456;47.824;16.228;2024-03-02T03:08:33;27.83;;;22.17;;
18653;SDS011;9456;47.824;16.228;2024-03-02T03:11:01;29.87;;;23.73;;
18653;SDS011;9456;47.824;16.228;2024-03-02T03:13:29;28.80;;;21.90;;
18653;SDS011;9456;47.824;16.228;2024-03-02T03:15:57;27.60;;;21.77;;
18653;SDS011;9456;47.824;16.228;2024-03-02T03:18:25;29.93;;;22.00;;
18653;SDS011;9456;47.824;16.228;2024-03-02T03:20:53;25.50;;;21.17;;
18653;SDS011;9456;47.824;16.228;2024-03-02T03:23:21;27.80;;;22.30;;
18653;SDS011;9456;47.824;16.228;2024-03-02T03:25:49;25.80;;;20.90;;
18653;SDS011;9456;47.824;16.228;2024-03-02T03:28:17;28.20;;;20.77;;
18653;SDS011;9456;47.824;16.228;2024-03-02T03:30:45;27.23;;;21.37;;
18653;SDS011;9456;47.824;16.228;2024-03-02T03:33:13;24.97;;;20.00;;
18653;SDS011;9456;47.824;16.228;2024-03-02T03:35:41;24.67;;;19.83;;
18653;SDS011;9456;47.824;16.228;2024-03-02T03:38:09;26.83;;;20.73;;
18653;SDS011;9456;47.824;16.228;2024-03-02T03:40:37;22.67;;;18.93;;
18653;SDS011;9456;47.824;16.228;2024-03-02T03:43:05;23.50;;;18.73;;
18653;SDS011;9456;47.824;16.228;2024-03-02T03:50:47;26.20;;;21.43;;
18653;SDS011;9456;47.824;16.228;2024-03-02T03:53:15;30.73;;;23.70;;
18653;SDS011;9456;47.824;16.228;2024-03-02T03:55:43;33.47;;;25.40;;
18653;SDS011;9456;47.824;16.228;2024-03-02T03:58:11;34.20;;;25.90;;
18653;SDS011;9456;47.824;16.228;2024-03-02T04:00:39;36.17;;;26.30;;
18653;SDS011;9456;47.824;16.228;2024-03-02T04:03:07;35.33;;;27.60;;
18653;SDS011;9456;47.824;16.228;2024-03-02T04:05:35;43.70;;;30.63;;
18653;SDS011;9456;47.824;16.228;2024-03-02T04:08:03;37.53;;;28.00;;
18653;SDS011;9456;47.824;16.228;2024-03-02T04:10:31;38.40;;;27.70;;
18653;SDS011;9456;47.824;16.228;2024-03-02T04:13:08;37.63;;;28.03;;
18653;SDS011;9456;47.824;16.228;2024-03-02T04:15:36;33.17;;;25.47;;
18653;SDS011;9456;47.824;16.228;2024-03-02T04:18:04;31.50;;;25.37;;
18653;SDS011;9456;47.824;16.228;2024-03-02T04:20:32;37.77;;;29.00;;
18653;SDS011;9456;47.824;16.228;2024-03-02T04:23:00;36.27;;;27.63;;
18653;SDS011;9456;47.824;16.228;2024-03-02T04:25:28;35.87;;;27.90;;
18653;SDS011;9456;47.824;16.228;2024-03-02T04:27:56;33.67;;;26.37;;
18653;SDS011;9456;47.824;16.228;2024-03-02T04:30:24;31.57;;;26.30;;
18653;SDS011;9456;47.824;16.228;2024-03-02T04:32:53;33.03;;;26.43;;
18653;SDS011;9456;47.824;16.228;2024-03-02T04:35:21;36.60;;;27.37;;
18653;SDS011;9456;47.824;16.228;2024-03-02T04:37:49;33.70;;;27.27;;
18653;SDS011;9456;47.824;16.228;2024-03-02T04:40:17;35.07;;;26.80;;
18653;SDS011;9456;47.824;16.228;2024-03-02T04:42:45;30.87;;;25.87;;
18653;SDS011;9456;47.824;16.228;2024-03-02T04:45:18;29.40;;;24.50;;
18653;SDS011;9456;47.824;16.228;2024-03-02T04:47:46;30.40;;;24.50;;
18653;SDS011;9456;47.824;16.228;2024-03-02T04:50:14;29.70;;;23.63;;
18653;SDS011;9456;47.824;16.228;2024-03-02T04:52:42;30.40;;;24.10;;
18653;SDS011;9456;47.824;16.228;2024-03-02T04:55:10;27.17;;;22.33;;
18653;SDS011;9456;47.824;16.228;2024-03-02T04:57:44;26.70;;;22.50;;
18653;SDS011;9456;47.824;16.228;2024-03-02T05:00:13;25.77;;;21.63;;
18653;SDS011;9456;47.824;16.228;2024-03-02T05:02:41;21.90;;;18.13;;
18653;SDS011;9456;47.824;16.228;2024-03-02T05:05:09;21.33;;;19.10;;
18653;SDS011;9456;47.824;16.228;2024-03-02T05:07:37;21.73;;;18.80;;
18653;SDS011;9456;47.824;16.228;2024-03-02T05:10:05;21.77;;;19.23;;
18653;SDS011;9456;47.824;16.228;2024-03-02T05:12:33;21.97;;;19.67;;
18653;SDS011;9456;47.824;16.228;2024-03-02T05:15:08;22.17;;;19.40;;
18653;SDS011;9456;47.824;16.228;2024-03-02T05:17:36;21.07;;;18.83;;
18653;SDS011;9456;47.824;16.228;2024-03-02T05:20:05;22.27;;;19.97;;
18653;SDS011;9456;47.824;16.228;2024-03-02T05:22:33;22.13;;;19.70;;
18653;SDS011;9456;47.824;16.228;2024-03-02T05:25:01;24.30;;;20.10;;
18653;SDS011;9456;47.824;16.228;2024-03-02T05:27:29;24.47;;;21.43;;
18653;SDS011;9456;47.824;16.228;2024-03-02T05:29:57;27.60;;;22.23;;
18653;SDS011;9456;47.824;16.228;2024-03-02T05:32:25;29.40;;;24.30;;
18653;SDS011;9456;47.824;16.228;2024-03-02T05:34:53;32.30;;;27.07;;
18653;SDS011;9456;47.824;16.228;2024-03-02T05:37:21;29.87;;;25.60;;
18653;SDS011;9456;47.824;16.228;2024-03-02T05:39:49;31.10;;;27.17;;
18653;SDS011;9456;47.824;16.228;2024-03-02T05:42:17;30.87;;;27.40;;
18653;SDS011;9456;47.824;16.228;2024-03-02T05:47:22;35.57;;;28.73;;
18653;SDS011;9456;47.824;16.228;2024-03-02T05:49:50;35.37;;;28.37;;
18653;SDS011;9456;47.824;16.228;2024-03-02T05:52:18;38.50;;;30.60;;
18653;SDS011;9456;47.824;16.228;2024-03-02T05:54:46;37.93;;;30.63;;
18653;SDS011;9456;47.824;16.228;2024-03-02T05:57:14;40.33;;;32.70;;
18653;SDS011;9456;47.824;16.228;2024-03-02T05:59:45;42.43;;;34.37;;
18653;SDS011;9456;47.824;16.228;2024-03-02T06:02:13;36.27;;;31.00;;
18653;SDS011;9456;47.824;16.228;2024-03-02T06:04:41;41.23;;;30.80;;
18653;SDS011;9456;47.824;16.228;2024-03-02T06:07:09;60.17;;;33.93;;
18653;SDS011;9456;47.824;16.228;2024-03-02T06:09:37;125.77;;;36.27;;
18653;SDS011;9456;47.824;16.228;2024-03-02T06:12:05;97.07;;;34.53;;
18653;SDS011;9456;47.824;16.228;2024-03-02T06:14:33;151.07;;;37.37;;
18653;SDS011;9456;47.824;16.228;2024-03-02T06:17:01;85.80;;;32.43;;
18653;SDS011;9456;47.824;16.228;2024-03-02T06:19:29;116.60;;;34.67;;
18653;SDS011;9456;47.824;16.228;2024-03-02T06:21:57;203.63;;;43.17;;
18653;SDS011;9456;47.824;16.228;2024-03-02T06:24:25;131.87;;;37.90;;
18653;SDS011;9456;47.824;16.228;2024-03-02T06:26:53;260.33;;;43.77;;
18653;SDS011;9456;47.824;16.228;2024-03-02T06:29:21;177.97;;;42.67;;
18653;SDS011;9456;47.824;16.228;2024-03-02T06:31:49;238.00;;;45.20;;
18653;SDS011;9456;47.824;16.228;2024-03-02T06:34:17;192.07;;;43.30;;
18653;SDS011;9456;47.824;16.228;2024-03-02T06:36:45;215.37;;;46.20;;
18653;SDS011;9456;47.824;16.228;2024-03-02T06:39:13;185.20;;;40.77;;
18653;SDS011;9456;47.824;16.228;2024-03-02T06:41:41;117.53;;;39.40;;
18653;SDS011;9456;47.824;16.228;2024-03-02T06:44:10;213.40;;;41.63;;
18653;SDS011;9456;47.824;16.228;2024-03-02T06:46:38;177.47;;;41.00;;
18653;SDS011;9456;47.824;16.228;2024-03-02T06:49:06;237.50;;;44.27;;
18653;SDS011;9456;47.824;16.228;2024-03-02T06:51:34;208.03;;;43.43;;
18653;SDS011;9456;47.824;16.228;2024-03-02T06:54:03;124.37;;;37.50;;
18653;SDS011;9456;47.824;16.228;2024-03-02T06:56:31;149.73;;;36.03;;
18653;SDS011;9456;47.824;16.228;2024-03-02T06:58:59;150.50;;;37.70;;
18653;SDS011;9456;47.824;16.228;2024-03-02T07:01:27;144.60;;;37.87;;
18653;SDS011;9456;47.824;16.228;2024-03-02T07:03:55;93.20;;;35.43;;
18653;SDS011;9456;47.824;16.228;2024-03-02T07:06:23;123.70;;;34.93;;
18653;SDS011;9456;47.824;16.228;2024-03-02T07:08:51;95.07;;;33.90;;
18653;SDS011;9456;47.824;16.228;2024-03-02T07:11:19;73.57;;;31.67;;
18653;SDS011;9456;47.824;16.228;2024-03-02T07:13:47;79.37;;;32.57;;
18653;SDS011;9456;47.824;16.228;2024-03-02T07:16:15;69.00;;;32.77;;
18653;SDS011;9456;47.824;16.228;2024-03-02T07:18:55;48.53;;;30.60;;
18653;SDS011;9456;47.824;16.228;2024-03-02T07:21:23;44.10;;;28.50;;
18653;SDS011;9456;47.824;16.228;2024-03-02T07:23:51;51.17;;;29.80;;
18653;SDS011;9456;47.824;16.228;2024-03-02T07:26:19;35.00;;;28.47;;
18653;SDS011;9456;47.824;16.228;2024-03-02T07:28:47;34.57;;;27.17;;
18653;SDS011;9456;47.824;16.228;2024-03-02T07:31:15;30.00;;;25.80;;
18653;SDS011;9456;47.824;16.228;2024-03-02T07:33:44;25.90;;;23.10;;
18653;SDS011;9456;47.824;16.228;2024-03-02T07:36:13;26.50;;;23.80;;
18653;SDS011;9456;47.824;16.228;2024-03-02T07:38:41;47.67;;;37.33;;
18653;SDS011;9456;47.824;16.228;2024-03-02T07:41:09;20.97;;;18.97;;
18653;SDS011;9456;47.824;16.228;2024-03-02T07:43:37;19.10;;;17.40;;
18653;SDS011;9456;47.824;16.228;2024-03-02T07:46:05;17.30;;;15.70;;
18653;SDS011;9456;47.824;16.228;2024-03-02T07:48:33;15.10;;;13.80;;
18653;SDS011;9456;47.824;16.228;2024-03-02T07:51:01;13.17;;;12.07;;
18653;SDS011;9456;47.824;16.228;2024-03-02T07:53:29;12.80;;;11.70;;
18653;SDS011;9456;47.824;16.228;2024-03-02T07:55:57;13.03;;;11.93;;
18653;SDS011;9456;47.824;16.228;2024-03-02T07:58:26;13.60;;;12.50;;
18653;SDS011;9456;47.824;16.228;2024-03-02T08:00:54;13.90;;;12.70;;
18653;SDS011;9456;47.824;16.228;2024-03-02T08:03:22;15.83;;;14.50;;
18653;SDS011;9456;47.824;16.228;2024-03-02T08:05:50;15.40;;;14.10;;
18653;SDS011;9456;47.824;16.228;2024-03-02T08:08:18;16.20;;;14.70;;
18653;SDS011;9456;47.824;16.228;2024-03-02T08:10:46;17.57;;;15.80;;
18653;SDS011;9456;47.824;16.228;2024-03-02T08:13:14;17.73;;;15.83;;
18653;SDS011;9456;47.824;16.228;2024-03-02T08:15:42;17.67;;;16.07;;
18653;SDS011;9456;47.824;16.228;2024-03-02T08:18:10;18.63;;;16.83;;
18653;SDS011;9456;47.824;16.228;2024-03-02T08:20:38;17.13;;;15.43;;
18653;SDS011;9456;47.824;16.228;2024-03-02T08:23:06;18.03;;;16.37;;
18653;SDS011;9456;47.824;16.228;2024-03-02T08:25:34;17.27;;;15.67;;
18653;SDS011;9456;47.824;16.228;2024-03-02T08:28:02;17.77;;;15.97;;
18653;SDS011;9456;47.824;16.228;2024-03-02T08:30:30;17.17;;;15.53;;
18653;SDS011;9456;47.824;16.228;2024-03-02T08:32:58;16.67;;;15.07;;
18653;SDS011;9456;47.824;16.228;2024-03-02T08:35:26;17.13;;;15.53;;
18653;SDS011;9456;47.824;16.228;2024-03-02T08:37:54;16.97;;;15.30;;
18653;SDS011;9456;47.824;16.228;2024-03-02T08:40:22;17.20;;;15.67;;
18653;SDS011;9456;47.824;16.228;2024-03-02T08:42:51;17.27;;;15.67;;
18653;SDS011;9456;47.824;16.228;2024-03-02T08:45:19;18.63;;;16.83;;
18653;SDS011;9456;47.824;16.228;2024-03-02T08:47:48;18.57;;;16.87;;
18653;SDS011;9456;47.824;16.228;2024-03-02T08:50:16;20.80;;;18.70;;
18653;SDS011;9456;47.824;16.228;2024-03-02T08:52:44;19.93;;;18.17;;
18653;SDS011;9456;47.824;16.228;2024-03-02T08:55:12;19.13;;;17.30;;
18653;SDS011;9456;47.824;16.228;2024-03-02T08:57:40;18.13;;;16.47;;
18653;SDS011;9456;47.824;16.228;2024-03-02T09:00:10;18.00;;;16.30;;
18653;SDS011;9456;47.824;16.228;2024-03-02T09:02:38;16.23;;;14.73;;
18653;SDS011;9456;47.824;16.228;2024-03-02T09:05:07;17.43;;;15.87;;
18653;SDS011;9456;47.824;16.228;2024-03-02T09:07:35;16.77;;;15.27;;
18653;SDS011;9456;47.824;16.228;2024-03-02T09:10:03;16.90;;;15.30;;
18653;SDS011;9456;47.824;16.228;2024-03-02T09:12:31;17.17;;;15.60;;
18653;SDS011;9456;47.824;16.228;2024-03-02T09:14:59;18.00;;;16.30;;
18653;SDS011;9456;47.824;16.228;2024-03-02T09:17:27;17.20;;;15.70;;
18653;SDS011;9456;47.824;16.228;2024-03-02T09:19:55;18.30;;;16.53;;
18653;SDS011;9456;47.824;16.228;2024-03-02T09:22:23;19.53;;;17.63;;
18653;SDS011;9456;47.824;16.228;2024-03-02T09:24:51;17.87;;;16.20;;
18653;SDS011;9456;47.824;16.228;2024-03-02T09:27:19;18.70;;;17.00;;
18653;SDS011;9456;47.824;16.228;2024-03-02T09:29:47;18.37;;;16.67;;
18653;SDS011;9456;47.824;16.228;2024-03-02T09:32:15;18.37;;;16.67;;
18653;SDS011;9456;47.824;16.228;2024-03-02T09:34:43;19.27;;;17.40;;
18653;SDS011;9456;47.824;16.228;2024-03-02T09:37:11;18.73;;;16.97;;
18653;SDS011;9456;47.824;16.228;2024-03-02T09:39:39;19.37;;;17.57;;
18653;SDS011;9456;47.824;16.228;2024-03-02T09:42:11;18.20;;;16.60;;
18653;SDS011;9456;47.824;16.228;2024-03-02T09:44:39;18.77;;;17.03;;
18653;SDS011;9456;47.824;16.228;2024-03-02T09:47:07;18.50;;;16.80;;
18653;SDS011;9456;47.824;16.228;2024-03-02T09:49:35;20.13;;;17.77;;
18653;SDS011;9456;47.824;16.228;2024-03-02T09:52:04;19.20;;;17.30;;
18653;SDS011;9456;47.824;16.228;2024-03-02T09:54:38;18.93;;;17.23;;
18653;SDS011;9456;47.824;16.228;2024-03-02T09:57:06;18.33;;;16.67;;
18653;SDS011;9456;47.824;16.228;2024-03-02T09:59:34;18.47;;;16.77;;
18653;SDS011;9456;47.824;16.228;2024-03-02T10:02:02;18.90;;;16.50;;
18653;SDS011;9456;47.824;16.228;2024-03-02T10:04:30;17.90;;;16.30;;
18653;SDS011;9456;47.824;16.228;2024-03-02T10:07:11;16.77;;;15.37;;
18653;SDS011;9456;47.824;16.228;2024-03-02T10:09:39;20.80;;;18.70;;
18653;SDS011;9456;47.824;16.228;2024-03-02T10:12:08;17.17;;;15.57;;
18653;SDS011;9456;47.824;16.228;2024-03-02T10:14:36;13.97;;;12.73;;
18653;SDS011;9456;47.824;16.228;2024-03-02T10:17:05;13.97;;;12.77;;
18653;SDS011;9456;47.824;16.228;2024-03-02T10:19:32;13.77;;;12.47;;
18653;SDS011;9456;47.824;16.228;2024-03-02T10:22:00;13.63;;;12.50;;
18653;SDS011;9456;47.824;16.228;2024-03-02T10:24:34;13.97;;;12.87;;
18653;SDS011;9456;47.824;16.228;2024-03-02T10:26:56;15.63;;;14.33;;
18653;SDS011;9456;47.824;16.228;2024-03-02T10:29:24;15.63;;;14.33;;
18653;SDS011;9456;47.824;16.228;2024-03-02T10:31:52;17.40;;;15.90;;
18653;SDS011;9456;47.824;16.228;2024-03-02T10:34:21;19.33;;;17.73;;
18653;SDS011;9456;47.824;16.228;2024-03-02T10:36:48;19.67;;;17.77;;
18653;SDS011;9456;47.824;16.228;2024-03-02T10:39:16;19.53;;;17.83;;
18653;SDS011;9456;47.824;16.228;2024-03-02T10:44:21;20.00;;;18.20;;
18653;SDS011;9456;47.824;16.228;2024-03-02T10:46:49;19.07;;;17.33;;
18653;SDS011;9456;47.824;16.228;2024-03-02T10:49:17;21.07;;;19.17;;
18653;SDS011;9456;47.824;16.228;2024-03-02T10:51:45;19.30;;;17.50;;
18653;SDS011;9456;47.824;16.228;2024-03-02T10:54:13;19.73;;;17.83;;
18653;SDS011;9456;47.824;16.228;2024-03-02T10:56:41;20.67;;;18.70;;
18653;SDS011;9456;47.824;16.228;2024-03-02T10:59:12;21.83;;;19.80;;
18653;SDS011;9456;47.824;16.228;2024-03-02T11:01:38;21.73;;;19.63;;
18653;SDS011;9456;47.824;16.228;2024-03-02T11:04:07;24.13;;;21.83;;
18653;SDS011;9456;47.824;16.228;2024-03-02T11:06:34;23.87;;;21.50;;
18653;SDS011;9456;47.824;16.228;2024-03-02T11:09:03;26.23;;;23.73;;
18653;SDS011;9456;47.824;16.228;2024-03-02T11:11:32;26.23;;;23.63;;
18653;SDS011;9456;47.824;16.228;2024-03-02T11:13:59;26.20;;;23.67;;
18653;SDS011;9456;47.824;16.228;2024-03-02T11:16:31;26.00;;;23.50;;
18653;SDS011;9456;47.824;16.228;2024-03-02T11:18:55;26.17;;;23.40;;
18653;SDS011;9456;47.824;16.228;2024-03-02T11:21:23;26.17;;;23.40;;
18653;SDS011;9456;47.824;16.228;2024-03-02T11:23:51;27.30;;;24.60;;
18653;SDS011;9456;47.824;16.228;2024-03-02T11:26:19;25.50;;;22.90;;
18653;SDS011;9456;47.824;16.228;2024-03-02T11:28:48;25.63;;;23.13;;
18653;SDS011;9456;47.824;16.228;2024-03-02T11:31:18;26.17;;;23.47;;
18653;SDS011;9456;47.824;16.228;2024-03-02T11:33:47;23.97;;;21.57;;
18653;SDS011;9456;47.824;16.228;2024-03-02T11:36:15;26.00;;;23.30;;
18653;SDS011;9456;47.824;16.228;2024-03-02T11:38:43;24.73;;;22.27;;
18653;SDS011;9456;47.824;16.228;2024-03-02T11:41:17;24.13;;;21.43;;
18653;SDS011;9456;47.824;16.228;2024-03-02T11:43:45;23.77;;;21.47;;
18653;SDS011;9456;47.824;16.228;2024-03-02T11:46:13;23.97;;;21.60;;
18653;SDS011;9456;47.824;16.228;2024-03-02T11:48:41;23.70;;;21.40;;
18653;SDS011;9456;47.824;16.228;2024-03-02T11:51:09;22.27;;;20.07;;
18653;SDS011;9456;47.824;16.228;2024-03-02T11:53:39;23.53;;;21.13;;
18653;SDS011;9456;47.824;16.228;2024-03-02T11:56:08;24.57;;;21.97;;
18653;SDS011;9456;47.824;16.228;2024-03-02T11:58:36;24.53;;;21.93;;
18653;SDS011;9456;47.824;16.228;2024-03-02T12:01:04;24.60;;;22.00;;
18653;SDS011;9456;47.824;16.228;2024-03-02T12:03:32;24.20;;;21.63;;
18653;SDS011;9456;47.824;16.228;2024-03-02T12:06:00;25.97;;;23.47;;
18653;SDS011;9456;47.824;16.228;2024-03-02T12:08:28;26.20;;;23.00;;
18653;SDS011;9456;47.824;16.228;2024-03-02T12:10:59;24.37;;;21.97;;
18653;SDS011;9456;47.824;16.228;2024-03-02T12:13:27;25.37;;;22.87;;
18653;SDS011;9456;47.824;16.228;2024-03-02T12:15:55;24.33;;;21.80;;
18653;SDS011;9456;47.824;16.228;2024-03-02T12:18:23;25.13;;;22.00;;
18653;SDS011;9456;47.824;16.228;2024-03-02T12:20:52;24.87;;;22.27;;
18653;SDS011;9456;47.824;16.228;2024-03-02T12:23:20;24.43;;;22.00;;
18653;SDS011;9456;47.824;16.228;2024-03-02T12:25:48;24.73;;;22.23;;
18653;SDS011;9456;47.824;16.228;2024-03-02T12:28:16;26.63;;;24.13;;
18653;SDS011;9456;47.824;16.228;2024-03-02T12:30:45;26.30;;;23.53;;
18653;SDS011;9456;47.824;16.228;2024-03-02T12:33:13;27.20;;;24.50;;
18653;SDS011;9456;47.824;16.228;2024-03-02T12:35:41;26.93;;;24.07;;
18653;SDS011;9456;47.824;16.228;2024-03-02T12:38:09;28.40;;;25.27;;
18653;SDS011;9456;47.824;16.228;2024-03-02T12:40:39;27.53;;;24.83;;
18653;SDS011;9456;47.824;16.228;2024-03-02T12:43:07;28.03;;;25.23;;
18653;SDS011;9456;47.824;16.228;2024-03-02T12:45:35;27.17;;;24.47;;
18653;SDS011;9456;47.824;16.228;2024-03-02T12:48:04;27.33;;;24.63;;
18653;SDS011;9456;47.824;16.228;2024-03-02T12:50:32;27.83;;;24.33;;
18653;SDS011;9456;47.824;16.228;2024-03-02T12:53:00;27.60;;;24.93;;
18653;SDS011;9456;47.824;16.228;2024-03-02T12:55:28;30.03;;;26.97;;
18653;SDS011;9456;47.824;16.228;2024-03-02T12:57:56;29.10;;;26.10;;
18653;SDS011;9456;47.824;16.228;2024-03-02T13:00:24;28.73;;;25.87;;
18653;SDS011;9456;47.824;16.228;2024-03-02T13:02:52;27.83;;;25.10;;
18653;SDS011;9456;47.824;16.228;2024-03-02T13:05:20;28.40;;;25.40;;
18653;SDS011;9456;47.824;16.228;2024-03-02T13:07:48;29.30;;;26.10;;
18653;SDS011;9456;47.824;16.228;2024-03-02T13:10:16;28.70;;;26.00;;
18653;SDS011;9456;47.824;16.228;2024-03-02T13:12:44;28.90;;;25.93;;
18653;SDS011;9456;47.824;16.228;2024-03-02T13:15:12;27.70;;;25.10;;
18653;SDS011;9456;47.824;16.228;2024-03-02T13:17:41;29.50;;;26.60;;
18653;SDS011;9456;47.824;16.228;2024-03-02T13:20:09;27.30;;;24.63;;
18653;SDS011;9456;47.824;16.228;2024-03-02T13:22:38;28.37;;;25.67;;
18653;SDS011;9456;47.824;16.228;2024-03-02T13:25:06;28.70;;;25.10;;
18653;SDS011;9456;47.824;16.228;2024-03-02T13:27:34;28.77;;;25.90;;
18653;SDS011;9456;47.824;16.228;2024-03-02T13:30:02;28.93;;;26.13;;
18653;SDS011;9456;47.824;16.228;2024-03-02T13:32:31;30.33;;;27.37;;
18653;SDS011;9456;47.824;16.228;2024-03-02T13:34:59;29.33;;;26.47;;
18653;SDS011;9456;47.824;16.228;2024-03-02T13:37:27;26.57;;;23.97;;
18653;SDS011;9456;47.824;16.228;2024-03-02T13:39:55;27.57;;;24.73;;
18653;SDS011;9456;47.824;16.228;2024-03-02T13:42:24;28.33;;;25.53;;
18653;SDS011;9456;47.824;16.228;2024-03-02T13:44:52;26.77;;;24.17;;
18653;SDS011;9456;47.824;16.228;2024-03-02T13:47:20;27.30;;;24.63;;
18653;SDS011;9456;47.824;16.228;2024-03-02T13:49:48;26.47;;;23.87;;
18653;SDS011;9456;47.824;16.228;2024-03-02T13:52:16;27.00;;;24.20;;
18653;SDS011;9456;47.824;16.228;2024-03-02T13:54:45;26.67;;;23.97;;
18653;SDS011;9456;47.824;16.228;2024-03-02T13:57:12;26.00;;;23.33;;
18653;SDS011;9456;47.824;16.228;2024-03-02T13:59:40;24.03;;;21.70;;
18653;SDS011;9456;47.824;16.228;2024-03-02T14:02:08;26.00;;;23.30;;
18653;SDS011;9456;47.824;16.228;2024-03-02T14:04:36;23.97;;;21.47;;
18653;SDS011;9456;47.824;16.228;2024-03-02T14:07:04;28.43;;;24.00;;
18653;SDS011;9456;47.824;16.228;2024-03-02T14:09:36;26.03;;;23.30;;
18653;SDS011;9456;47.824;16.228;2024-03-02T14:12:05;27.00;;;22.27;;
18653;SDS011;9456;47.824;16.228;2024-03-02T14:14:32;25.00;;;22.47;;
18653;SDS011;9456;47.824;16.228;2024-03-02T14:17:00;24.77;;;22.17;;
18653;SDS011;9456;47.824;16.228;2024-03-02T14:19:28;25.17;;;22.57;;
18653;SDS011;9456;47.824;16.228;2024-03-02T14:21:56;25.70;;;22.90;;
18653;SDS011;9456;47.824;16.228;2024-03-02T14:24:24;23.10;;;20.80;;
18653;SDS011;9456;47.824;16.228;2024-03-02T14:26:53;25.00;;;22.60;;
18653;SDS011;9456;47.824;16.228;2024-03-02T14:29:21;25.17;;;22.57;;
18653;SDS011;9456;47.824;16.228;2024-03-02T14:31:49;25.20;;;22.83;;
18653;SDS011;9456;47.824;16.228;2024-03-02T14:34:17;23.40;;;21.20;;
18653;SDS011;9456;47.824;16.228;2024-03-02T14:36:45;23.47;;;20.97;;
18653;SDS011;9456;47.824;16.228;2024-03-02T14:39:13;23.37;;;21.07;;